createdAt,value
2018-01-07T00:00:48.363Z,20.88
2018-01-07T00:03:14.858Z,27.50
2018-01-07T00:05:41.306Z,16.15
2018-01-07T00:08:07.733Z,18.42
2018-01-07T00:10:34.229Z,18.45
2018-01-07T00:13:01.444Z,16.83
2018-01-07T00:15:27.908Z,17.98
2018-01-07T00:17:54.336Z,17.00
2018-01-07T00:20:20.782Z,16.70
2018-01-07T00:22:47.236Z,13.85
2018-01-07T00:25:13.703Z,11.93
2018-01-07T00:27:40.151Z,21.17
2018-01-07T00:30:06.584Z,14.50
2018-01-07T00:32:33.056Z,17.00
2018-01-07T00:35:00.358Z,16.60
2018-01-07T00:37:26.814Z,19.23
2018-01-07T00:39:53.284Z,14.98
2018-01-07T00:42:19.705Z,13.45
2018-01-07T00:44:46.156Z,10.20
2018-01-07T00:47:13.301Z,13.35
2018-01-07T00:49:40.511Z,13.73
2018-01-07T00:52:06.924Z,9.60
2018-01-07T00:54:33.405Z,10.65
2018-01-07T00:56:59.826Z,15.57
2018-01-07T00:59:26.245Z,9.82
2018-01-07T01:01:52.701Z,12.15
2018-01-07T01:04:19.116Z,9.88
2018-01-07T01:06:45.572Z,11.15
2018-01-07T01:09:12.009Z,11.90
2018-01-07T01:11:38.483Z,9.20
2018-01-07T01:14:04.985Z,12.50
2018-01-07T01:16:31.476Z,10.57
2018-01-07T01:18:57.905Z,9.27
2018-01-07T01:21:24.313Z,14.52
2018-01-07T01:23:50.763Z,14.98
2018-01-07T01:26:17.164Z,13.40
2018-01-07T01:28:43.604Z,9.82
2018-01-07T01:31:10.037Z,9.50
2018-01-07T01:33:36.499Z,11.45
2018-01-07T01:36:02.925Z,10.20
2018-01-07T01:38:29.368Z,8.10
2018-01-07T01:40:55.785Z,8.00
2018-01-07T01:43:22.210Z,12.37
2018-01-07T01:45:48.665Z,11.30
2018-01-07T01:48:15.101Z,9.85
2018-01-07T01:50:41.529Z,9.75
2018-01-07T01:53:07.969Z,12.57
2018-01-07T01:55:34.374Z,10.65
2018-01-07T01:58:00.941Z,10.77
2018-01-07T02:00:27.388Z,10.10
2018-01-07T02:02:54.568Z,9.95
2018-01-07T02:05:21.712Z,9.73
2018-01-07T02:07:48.912Z,8.50
2018-01-07T02:10:15.336Z,8.23
2018-01-07T02:12:41.785Z,8.15
2018-01-07T02:15:08.217Z,10.23
2018-01-07T02:17:34.655Z,7.37
2018-01-07T02:20:01.804Z,8.30
2018-01-07T02:22:28.228Z,8.85
2018-01-07T02:24:54.664Z,8.80
2018-01-07T02:27:21.063Z,10.48
2018-01-07T02:29:47.501Z,11.07
2018-01-07T02:32:13.945Z,9.63
2018-01-07T02:34:40.341Z,11.50
2018-01-07T02:37:07.501Z,16.55
2018-01-07T02:39:34.678Z,9.27
2018-01-07T02:42:01.100Z,9.60
2018-01-07T02:44:27.506Z,7.85
2018-01-07T02:46:54.968Z,9.60
2018-01-07T02:49:22.137Z,7.00
2018-01-07T02:51:48.573Z,7.57
2018-01-07T02:54:14.988Z,9.18
2018-01-07T02:56:41.454Z,7.68
2018-01-07T02:59:07.864Z,7.32
2018-01-07T03:01:34.279Z,24.60
2018-01-07T03:04:00.737Z,8.02
2018-01-07T03:06:27.494Z,7.50
2018-01-07T03:08:53.900Z,8.40
2018-01-07T03:11:20.340Z,7.10
2018-01-07T03:13:46.789Z,12.88
2018-01-07T03:16:13.196Z,7.03
2018-01-07T03:18:39.637Z,9.40
2018-01-07T03:21:06.045Z,10.55
2018-01-07T03:23:33.205Z,13.00
2018-01-07T03:25:59.620Z,72.85
2018-01-07T03:28:26.034Z,17.02
2018-01-07T03:30:52.438Z,55.10
2018-01-07T03:33:18.829Z,23.50
2018-01-07T03:35:45.980Z,18.50
2018-01-07T03:38:13.144Z,22.20
2018-01-07T03:40:39.631Z,36.00
2018-01-07T03:43:06.028Z,17.40
2018-01-07T03:45:32.410Z,12.07
2018-01-07T03:47:58.844Z,9.88
2018-01-07T03:50:25.237Z,13.65
2018-01-07T03:52:51.671Z,9.10
2018-01-07T03:55:18.048Z,10.05
2018-01-07T03:57:45.245Z,10.95
2018-01-07T04:00:11.669Z,7.82
2018-01-07T04:02:38.210Z,36.28
2018-01-07T04:05:04.621Z,16.17
2018-01-07T04:07:31.748Z,8.25
2018-01-07T04:09:58.176Z,55.92
2018-01-07T04:12:25.440Z,25.00
2018-01-07T04:14:52.608Z,63.83
2018-01-07T04:17:19.002Z,93.57
2018-01-07T04:19:45.416Z,8.98
2018-01-07T04:22:12.265Z,10.88
2018-01-07T04:24:39.440Z,11.95
2018-01-07T04:27:05.904Z,15.63
2018-01-07T04:29:32.301Z,23.80
2018-01-07T04:31:58.681Z,21.95
2018-01-07T04:34:25.120Z,16.50
2018-01-07T04:36:51.567Z,43.80
2018-01-07T04:39:18.045Z,13.55
2018-01-07T04:41:44.472Z,10.73
2018-01-07T04:44:11.627Z,91.68
2018-01-07T04:46:38.769Z,148.13
2018-01-07T04:49:05.942Z,28.33
2018-01-07T04:51:32.353Z,56.10
2018-01-07T04:53:58.777Z,38.03
2018-01-07T04:56:25.328Z,14.95
2018-01-07T04:58:51.736Z,35.35
2018-01-07T05:01:18.165Z,22.02
2018-01-07T05:03:44.580Z,16.20
2018-01-07T05:06:11.024Z,14.07
2018-01-07T05:08:37.443Z,19.33
2018-01-07T05:11:03.848Z,57.72
2018-01-07T05:13:30.304Z,47.30
2018-01-07T05:15:56.717Z,38.83
2018-01-07T05:18:23.120Z,32.70
2018-01-07T05:20:50.272Z,260.80
2018-01-07T05:23:17.432Z,82.85
2018-01-07T05:25:43.860Z,28.55
2018-01-07T05:28:10.266Z,41.25
2018-01-07T05:30:36.740Z,64.12
2018-01-07T05:33:03.157Z,134.48
2018-01-07T05:35:29.561Z,154.87
2018-01-07T05:37:55.973Z,98.07
2018-01-07T05:40:22.670Z,41.80
2018-01-07T05:42:49.092Z,109.80
2018-01-07T05:45:15.540Z,135.50
2018-01-07T05:47:41.997Z,101.70
2018-01-07T05:50:08.395Z,84.70
2018-01-07T05:52:34.817Z,58.20
2018-01-07T05:55:01.252Z,69.68
2018-01-07T05:57:27.657Z,75.07
2018-01-07T05:59:54.086Z,64.60
2018-01-07T06:02:20.495Z,133.35
2018-01-07T06:04:46.921Z,89.60
2018-01-07T06:07:13.369Z,266.15
2018-01-07T06:09:39.788Z,161.43
2018-01-07T06:12:06.256Z,82.75
2018-01-07T06:14:32.653Z,162.40
2018-01-07T06:16:59.067Z,46.75
2018-01-07T06:19:25.477Z,116.53
2018-01-07T06:21:52.645Z,101.82
2018-01-07T06:24:19.118Z,101.57
2018-01-07T06:26:45.534Z,114.37
2018-01-07T06:29:12.022Z,151.40
2018-01-07T06:31:39.461Z,159.57
2018-01-07T06:34:06.617Z,302.70
2018-01-07T06:36:33.025Z,109.90
2018-01-07T06:38:59.477Z,145.12
2018-01-07T06:41:25.892Z,119.20
2018-01-07T06:43:52.319Z,68.37
2018-01-07T06:46:18.713Z,192.35
2018-01-07T06:48:45.120Z,41.65
2018-01-07T06:51:11.571Z,220.32
2018-01-07T06:53:37.998Z,74.07
2018-01-07T06:56:05.142Z,127.93
2018-01-07T06:58:31.591Z,111.62
2018-01-07T07:00:58.000Z,231.00
2018-01-07T07:03:25.153Z,204.27
2018-01-07T07:05:52.277Z,38.88
2018-01-07T07:08:18.702Z,291.17
2018-01-07T07:10:45.957Z,107.95
2018-01-07T07:13:12.382Z,222.43
2018-01-07T07:15:38.840Z,84.80
2018-01-07T07:18:05.233Z,80.25
2018-01-07T07:20:31.670Z,233.55
2018-01-07T07:22:58.112Z,125.45
2018-01-07T07:25:25.262Z,127.50
2018-01-07T07:27:51.697Z,136.18
2018-01-07T07:30:18.093Z,221.60
2018-01-07T07:32:44.504Z,136.75
2018-01-07T07:35:11.741Z,141.95
2018-01-07T07:37:38.953Z,70.00
2018-01-07T07:40:05.383Z,91.05
2018-01-07T07:42:32.589Z,221.43
2018-01-07T07:44:59.743Z,175.10
2018-01-07T07:47:26.157Z,168.70
2018-01-07T07:49:53.327Z,141.30
2018-01-07T07:52:20.476Z,100.38
2018-01-07T07:54:46.954Z,192.87
2018-01-07T07:57:13.421Z,129.98
2018-01-07T07:59:40.586Z,142.20
2018-01-07T08:02:07.760Z,119.18
2018-01-07T08:04:34.172Z,222.18
2018-01-07T08:07:01.341Z,121.82
2018-01-07T08:09:27.736Z,157.07
2018-01-07T08:11:54.899Z,175.80
2018-01-07T08:14:21.472Z,322.42
2018-01-07T08:16:48.038Z,79.18
2018-01-07T08:19:14.553Z,91.82
2018-01-07T08:21:40.994Z,96.40
2018-01-07T08:24:07.436Z,45.17
2018-01-07T08:26:33.856Z,63.28
2018-01-07T08:29:00.299Z,45.55
2018-01-07T08:31:26.712Z,124.22
2018-01-07T08:33:53.169Z,95.40
2018-01-07T08:36:20.543Z,82.75
2018-01-07T08:38:47.728Z,95.50
2018-01-07T08:41:14.232Z,228.15
2018-01-07T08:43:40.639Z,127.38
2018-01-07T08:46:07.096Z,105.35
2018-01-07T08:48:33.507Z,63.00
2018-01-07T08:50:59.938Z,59.53
2018-01-07T08:53:27.153Z,69.35
2018-01-07T08:55:53.652Z,58.20
2018-01-07T08:58:20.812Z,179.57
2018-01-07T09:00:47.945Z,238.05
2018-01-07T09:03:15.158Z,191.40
2018-01-07T09:05:41.592Z,89.15
2018-01-07T09:08:08.026Z,192.07
2018-01-07T09:10:34.445Z,106.93
2018-01-07T09:13:00.921Z,74.30
2018-01-07T09:15:27.322Z,263.80
2018-01-07T09:17:53.773Z,49.00
2018-01-07T09:20:20.960Z,113.00
2018-01-07T09:22:47.384Z,37.65
2018-01-07T09:25:13.862Z,64.93
2018-01-07T09:27:40.300Z,108.60
2018-01-07T09:30:06.727Z,259.87
2018-01-07T09:32:33.242Z,241.50
2018-01-07T09:34:59.693Z,158.70
2018-01-07T09:37:26.094Z,158.60
2018-01-07T09:39:52.545Z,214.82
2018-01-07T09:42:18.974Z,252.48
2018-01-07T09:44:45.466Z,99.32
2018-01-07T09:47:11.961Z,303.75
2018-01-07T09:49:39.219Z,133.68
2018-01-07T09:52:05.626Z,262.30
2018-01-07T09:54:32.054Z,484.30
2018-01-07T09:56:58.489Z,313.35
2018-01-07T09:59:24.929Z,275.40
2018-01-07T10:01:51.363Z,487.48
2018-01-07T10:04:17.785Z,478.85
2018-01-07T10:06:44.237Z,239.90
2018-01-07T10:09:10.666Z,347.73
2018-01-07T10:11:37.135Z,375.08
2018-01-07T10:14:03.577Z,299.27
2018-01-07T10:16:29.997Z,278.42
2018-01-07T10:18:56.480Z,471.17
2018-01-07T10:21:22.909Z,180.95
2018-01-07T10:23:50.085Z,397.75
2018-01-07T10:26:16.475Z,318.48
2018-01-07T10:28:43.664Z,351.12
2018-01-07T10:31:10.096Z,318.70
2018-01-07T10:33:36.553Z,156.32
2018-01-07T10:36:03.789Z,406.80
2018-01-07T10:38:30.265Z,125.60
2018-01-07T10:40:56.729Z,74.40
2018-01-07T10:43:23.133Z,345.15
2018-01-07T10:45:49.585Z,389.10
2018-01-07T10:48:16.752Z,50.55
2018-01-07T10:50:43.194Z,117.07
2018-01-07T10:53:09.623Z,156.27
2018-01-07T10:55:36.133Z,149.95
2018-01-07T10:58:02.621Z,123.72
2018-01-07T11:00:29.075Z,138.05
2018-01-07T11:02:55.548Z,386.45
2018-01-07T11:05:21.999Z,155.73
2018-01-07T11:07:48.417Z,241.10
2018-01-07T11:10:14.832Z,148.60
2018-01-07T11:12:42.027Z,273.02
2018-01-07T11:15:08.454Z,386.67
2018-01-07T11:17:34.897Z,349.48
2018-01-07T11:20:01.423Z,145.90
2018-01-07T11:22:27.882Z,174.23
2018-01-07T11:24:54.309Z,279.40
2018-01-07T11:27:20.776Z,155.23
2018-01-07T11:29:47.963Z,449.62
2018-01-07T11:32:14.421Z,124.80
2018-01-07T11:34:40.849Z,313.80
2018-01-07T11:37:07.307Z,478.38
2018-01-07T11:39:33.753Z,296.60
2018-01-07T11:42:00.217Z,406.80
2018-01-07T11:44:26.639Z,338.92
2018-01-07T11:46:53.101Z,315.77
2018-01-07T11:49:19.524Z,149.20
2018-01-07T11:51:46.004Z,279.80
2018-01-07T11:54:12.434Z,472.75
2018-01-07T11:56:38.836Z,316.85
2018-01-07T11:59:05.286Z,472.75
2018-01-07T12:01:31.742Z,443.52
2018-01-07T12:03:58.214Z,445.95
2018-01-07T12:06:24.655Z,495.27
2018-01-07T12:08:51.094Z,672.97
2018-01-07T12:11:17.571Z,587.65
2018-01-07T12:13:44.105Z,239.10
2018-01-07T12:16:11.301Z,325.77
2018-01-07T12:18:37.754Z,305.10
2018-01-07T12:21:04.238Z,651.40
2018-01-07T12:23:31.417Z,187.68
2018-01-07T12:25:57.874Z,360.42
2018-01-07T12:28:24.338Z,554.78
2018-01-07T12:30:50.800Z,414.02
2018-01-07T12:33:17.248Z,390.65
2018-01-07T12:35:43.685Z,227.00
2018-01-07T12:38:10.137Z,310.77
2018-01-07T12:40:36.621Z,163.32
2018-01-07T12:43:03.110Z,645.55
2018-01-07T12:45:29.608Z,436.70
2018-01-07T12:47:56.024Z,628.95
2018-01-07T12:50:22.566Z,540.90
2018-01-07T12:52:49.773Z,713.35
2018-01-07T12:55:16.966Z,309.35
2018-01-07T12:57:44.124Z,515.90
2018-01-07T13:00:10.594Z,409.73
2018-01-07T13:02:37.057Z,333.33
2018-01-07T13:05:04.234Z,188.18
2018-01-07T13:07:31.477Z,204.23
2018-01-07T13:09:58.714Z,340.87
2018-01-07T13:12:25.190Z,327.98
2018-01-07T13:14:51.634Z,297.98
2018-01-07T13:17:18.135Z,316.08
2018-01-07T13:19:44.635Z,685.78
2018-01-07T13:22:11.093Z,751.60
2018-01-07T13:24:37.581Z,441.40
2018-01-07T13:27:04.092Z,244.15
2018-01-07T13:29:30.558Z,422.02
2018-01-07T13:31:56.980Z,369.02
2018-01-07T13:34:24.174Z,452.98
2018-01-07T13:36:50.610Z,661.50
2018-01-07T13:39:17.814Z,751.10
2018-01-07T13:41:44.253Z,238.37
2018-01-07T13:44:10.750Z,162.07
2018-01-07T13:46:37.947Z,357.20
2018-01-07T13:49:04.402Z,233.73
2018-01-07T13:51:30.873Z,605.35
2018-01-07T13:53:57.312Z,169.07
2018-01-07T13:56:23.791Z,223.30
2018-01-07T13:58:50.227Z,374.85
2018-01-07T14:01:16.652Z,261.62
2018-01-07T14:03:43.117Z,454.27
2018-01-07T14:06:10.278Z,894.80
2018-01-07T14:08:37.491Z,758.67
2018-01-07T14:11:03.937Z,648.22
2018-01-07T14:13:31.140Z,157.30
2018-01-07T14:15:57.634Z,805.70
2018-01-07T14:18:24.830Z,491.85
2018-01-07T14:20:51.302Z,720.35
2018-01-07T14:23:18.513Z,413.27
2018-01-07T14:25:45.325Z,821.90
2018-01-07T14:28:12.192Z,855.22
2018-01-07T14:30:38.664Z,799.17
2018-01-07T14:33:05.140Z,394.40
2018-01-07T14:35:31.593Z,417.80
2018-01-07T14:37:58.073Z,555.80
2018-01-07T14:40:25.304Z,459.13
2018-01-07T14:42:51.748Z,173.62
2018-01-07T14:45:19.017Z,256.55
2018-01-07T14:47:46.248Z,984.33
2018-01-07T14:50:12.737Z,351.67
2018-01-07T14:52:39.169Z,599.35
2018-01-07T14:55:05.617Z,561.15
2018-01-07T14:57:32.159Z,354.77
2018-01-07T14:59:58.671Z,311.08
2018-01-07T15:02:25.179Z,422.58
2018-01-07T15:04:52.397Z,413.50
2018-01-07T15:07:18.864Z,107.65
2018-01-07T15:09:45.354Z,88.57
2018-01-07T15:12:11.850Z,78.68
2018-01-07T15:14:38.327Z,70.87
2018-01-07T15:17:04.797Z,74.78
2018-01-07T15:19:31.271Z,67.53
2018-01-07T15:21:57.735Z,99.20
2018-01-07T15:24:24.969Z,105.55
2018-01-07T15:26:52.169Z,100.72
2018-01-07T15:29:19.365Z,357.62
2018-01-07T15:31:45.901Z,266.17
2018-01-07T15:34:12.391Z,153.87
2018-01-07T15:36:39.569Z,61.45
2018-01-07T15:39:06.037Z,66.50
2018-01-07T15:41:32.467Z,66.15
2018-01-07T15:43:59.011Z,72.03
2018-01-07T15:46:25.467Z,53.40
2018-01-07T15:48:51.966Z,47.65
2018-01-07T15:51:18.468Z,54.95
2018-01-07T15:53:44.916Z,54.08
2018-01-07T15:56:11.398Z,56.15
2018-01-07T15:58:38.629Z,93.78
2018-01-07T16:01:05.148Z,55.50
2018-01-07T16:03:31.673Z,42.45
2018-01-07T16:05:58.168Z,39.75
2018-01-07T16:08:24.665Z,44.17
2018-01-07T16:10:51.127Z,40.65
2018-01-07T16:13:18.390Z,32.83
2018-01-07T16:15:45.593Z,37.55
2018-01-07T16:18:12.069Z,37.55
2018-01-07T16:20:39.297Z,36.90
2018-01-07T16:23:05.783Z,35.45
2018-01-07T16:25:32.227Z,32.53
2018-01-07T16:27:58.720Z,34.25
2018-01-07T16:30:25.902Z,38.90
2018-01-07T16:32:52.407Z,33.10
2018-01-07T16:35:19.654Z,28.42
2018-01-07T16:37:46.161Z,25.50
2018-01-07T16:40:12.621Z,30.58
2018-01-07T16:42:39.054Z,26.48
2018-01-07T16:45:05.604Z,29.73
2018-01-07T16:47:32.054Z,28.45
2018-01-07T16:49:58.598Z,22.48
2018-01-07T16:52:25.122Z,25.00
2018-01-07T16:54:51.569Z,30.10
2018-01-07T16:57:18.005Z,21.48
2018-01-07T16:59:44.483Z,24.33
2018-01-07T17:02:10.937Z,31.12
2018-01-07T17:04:37.521Z,26.52
2018-01-07T17:07:03.997Z,24.87
2018-01-07T17:09:31.275Z,24.77
2018-01-07T17:11:57.800Z,28.30
2018-01-07T17:14:24.280Z,24.80
2018-01-07T17:16:50.742Z,27.20
2018-01-07T17:19:17.931Z,25.45
2018-01-07T17:21:44.413Z,22.00
2018-01-07T17:24:10.877Z,24.35
2018-01-07T17:26:38.132Z,24.15
2018-01-07T17:29:05.317Z,21.33
2018-01-07T17:31:31.799Z,23.30
2018-01-07T17:33:58.241Z,19.60
2018-01-07T17:36:25.433Z,21.23
2018-01-07T17:38:51.885Z,23.67
2018-01-07T17:41:18.333Z,26.17
2018-01-07T17:43:44.799Z,29.98
2018-01-07T17:46:11.266Z,21.67
2018-01-07T17:48:37.702Z,20.65
2018-01-07T17:51:04.193Z,22.65
2018-01-07T17:53:31.367Z,18.75
2018-01-07T17:55:57.843Z,19.02
2018-01-07T17:58:24.329Z,21.30
2018-01-07T18:00:50.829Z,19.65
2018-01-07T18:03:18.066Z,18.37
2018-01-07T18:05:44.566Z,17.65
2018-01-07T18:08:11.018Z,17.90
2018-01-07T18:10:37.482Z,18.25
2018-01-07T18:13:03.946Z,18.52
2018-01-07T18:15:30.472Z,16.65
2018-01-07T18:17:57.684Z,17.10
2018-01-07T18:20:24.195Z,16.92
2018-01-07T18:22:50.701Z,17.02
2018-01-07T18:25:17.138Z,17.73
2018-01-07T18:27:43.684Z,18.85
2018-01-07T18:30:10.132Z,17.67
2018-01-07T18:32:36.601Z,16.85
2018-01-07T18:35:03.099Z,17.50
2018-01-07T18:37:29.865Z,17.45
2018-01-07T18:39:57.163Z,19.77
2018-01-07T18:42:24.357Z,17.10
2018-01-07T18:44:50.811Z,14.95
2018-01-07T18:47:17.301Z,16.42
2018-01-07T18:49:43.794Z,16.95
2018-01-07T18:52:10.311Z,16.67
2018-01-07T18:54:36.757Z,17.77
2018-01-07T18:57:03.214Z,22.08
2018-01-07T18:59:30.409Z,20.77
2018-01-07T19:01:56.897Z,19.70
2018-01-07T19:04:23.403Z,18.98
2018-01-07T19:06:50.649Z,16.65
2018-01-07T19:09:17.156Z,16.90
2018-01-07T19:11:43.685Z,15.77
2018-01-07T19:14:10.173Z,15.80
2018-01-07T19:16:36.646Z,13.00
2018-01-07T19:19:03.082Z,15.30
2018-01-07T19:21:29.560Z,16.65
2018-01-07T19:23:56.005Z,16.42
2018-01-07T19:26:23.268Z,17.70
2018-01-07T19:28:49.746Z,18.05
2018-01-07T19:31:16.327Z,16.12
2018-01-07T19:33:42.807Z,16.90
2018-01-07T19:36:09.254Z,15.35
2018-01-07T19:38:35.775Z,16.33
2018-01-07T19:41:02.280Z,20.73
2018-01-07T19:43:29.540Z,16.83
2018-01-07T19:45:56.004Z,17.40
2018-01-07T19:48:22.534Z,15.95
2018-01-07T19:50:49.121Z,18.83
2018-01-07T19:53:15.583Z,15.95
2018-01-07T19:55:42.064Z,15.90
2018-01-07T19:58:08.542Z,18.25
2018-01-07T20:00:35.280Z,22.40
2018-01-07T20:03:01.958Z,20.80
2018-01-07T20:05:28.498Z,15.73
2018-01-07T20:07:54.967Z,18.67
2018-01-07T20:10:21.422Z,17.35
2018-01-07T20:12:47.939Z,18.48
2018-01-07T20:15:15.112Z,19.27
2018-01-07T20:17:41.570Z,16.83
2018-01-07T20:20:08.079Z,21.95
2018-01-07T20:22:34.518Z,15.75
2018-01-07T20:25:01.032Z,17.20
2018-01-07T20:27:27.542Z,20.52
2018-01-07T20:29:54.021Z,19.90
2018-01-07T20:32:20.524Z,21.95
2018-01-07T20:34:47.705Z,18.05
2018-01-07T20:37:14.233Z,25.98
2018-01-07T20:39:40.664Z,21.55
2018-01-07T20:42:07.146Z,22.40
2018-01-07T20:44:33.606Z,19.90
2018-01-07T20:47:00.827Z,19.75
2018-01-07T20:49:27.302Z,23.58
2018-01-07T20:51:54.570Z,21.50
2018-01-07T20:54:21.069Z,26.45
2018-01-07T20:56:48.311Z,21.90
2018-01-07T20:59:14.794Z,26.45
2018-01-07T21:01:41.293Z,22.70
2018-01-07T21:04:07.789Z,23.77
2018-01-07T21:06:34.297Z,24.70
2018-01-07T21:09:00.843Z,21.42
2018-01-07T21:11:28.850Z,19.85
2018-01-07T21:13:55.329Z,29.87
2018-01-07T21:16:21.834Z,24.67
2018-01-07T21:18:48.329Z,36.10
2018-01-07T21:21:14.773Z,26.05
2018-01-07T21:23:41.401Z,29.77
2018-01-07T21:26:07.862Z,30.15
2018-01-07T21:28:34.329Z,29.37
2018-01-07T21:31:00.870Z,24.00
2018-01-07T21:33:27.338Z,28.27
2018-01-07T21:35:54.652Z,26.70
2018-01-07T21:38:21.880Z,29.08
2018-01-07T21:40:49.173Z,24.85
2018-01-07T21:43:15.601Z,23.77
2018-01-07T21:45:42.053Z,24.42
2018-01-07T21:48:08.549Z,29.70
2018-01-07T21:50:35.794Z,28.23
2018-01-07T21:53:03.006Z,28.50
2018-01-07T21:55:29.514Z,27.48
2018-01-07T21:57:55.933Z,32.67
2018-01-07T22:00:43.408Z,26.40
2018-01-07T22:03:21.906Z,27.87
2018-01-07T22:05:54.082Z,52.85
2018-01-07T22:08:20.611Z,65.60
2018-01-07T22:10:47.046Z,40.40
2018-01-07T22:13:13.638Z,49.05
2018-01-07T22:15:40.145Z,31.35
2018-01-07T22:18:06.589Z,36.55
2018-01-07T22:20:33.805Z,37.30
2018-01-07T22:23:00.229Z,29.17
2018-01-07T22:25:26.736Z,32.03
2018-01-07T22:27:53.199Z,27.55
2018-01-07T22:30:19.641Z,35.00
2018-01-07T22:32:46.082Z,31.55
2018-01-07T22:35:12.580Z,34.63
2018-01-07T22:37:39.026Z,29.90
2018-01-07T22:40:05.457Z,32.47
2018-01-07T22:42:31.929Z,34.67
2018-01-07T22:44:58.389Z,35.35
2018-01-07T22:47:31.692Z,32.28
2018-01-07T22:49:58.150Z,41.78
2018-01-07T22:52:24.606Z,33.00
2018-01-07T22:54:51.042Z,34.88
2018-01-07T22:57:17.557Z,31.30
2018-01-07T22:59:43.965Z,37.90
2018-01-07T23:02:10.413Z,40.63
2018-01-07T23:04:36.866Z,63.78
2018-01-07T23:07:03.361Z,45.50
2018-01-07T23:09:29.787Z,39.47
2018-01-07T23:11:56.233Z,42.40
2018-01-07T23:14:22.694Z,31.60
2018-01-07T23:16:49.132Z,33.17
2018-01-07T23:19:15.568Z,31.05
2018-01-07T23:21:42.133Z,37.85
2018-01-07T23:24:08.589Z,42.25
2018-01-07T23:26:35.761Z,30.98
2018-01-07T23:29:02.216Z,35.05
2018-01-07T23:31:28.641Z,34.53
2018-01-07T23:33:55.077Z,32.83
2018-01-07T23:36:21.500Z,35.40
2018-01-07T23:38:47.933Z,33.55
2018-01-07T23:41:14.356Z,34.13
2018-01-07T23:43:40.782Z,32.08
2018-01-07T23:46:07.261Z,37.10
2018-01-07T23:48:33.706Z,36.63
2018-01-07T23:51:00.157Z,35.78
2018-01-07T23:53:26.597Z,33.47
2018-01-07T23:55:53.032Z,33.67
2018-01-07T23:58:19.636Z,35.85
